sensor_id;sensor_type;location;lat;lon;timestamp;P1;durP1;ratioP1;P2;durP2;ratioP2
75169;SDS011;63749;49.186;9.222;2024-01-11T00:02:04;63.10;;;24.60;;
75169;SDS011;63749;49.186;9.222;2024-01-11T00:04:29;55.53;;;21.33;;
75169;SDS011;63749;49.186;9.222;2024-01-11T00:06:54;56.97;;;21.63;;
75169;SDS011;63749;49.186;9.222;2024-01-11T00:09:20;55.47;;;20.83;;
75169;SDS011;63749;49.186;9.222;2024-01-11T00:11:45;54.67;;;20.50;;
75169;SDS011;63749;49.186;9.222;2024-01-11T00:14:11;54.10;;;20.23;;
75169;SDS011;63749;49.186;9.222;2024-01-11T00:16:36;53.43;;;19.63;;
75169;SDS011;63749;49.186;9.222;2024-01-11T00:19:01;49.37;;;19.80;;
75169;SDS011;63749;49.186;9.222;2024-01-11T00:21:27;56.17;;;20.10;;
75169;SDS011;63749;49.186;9.222;2024-01-11T00:23:52;52.72;;;20.15;;
75169;SDS011;63749;49.186;9.222;2024-01-11T00:26:18;48.70;;;19.10;;
75169;SDS011;63749;49.186;9.222;2024-01-11T00:28:43;48.07;;;18.43;;
75169;SDS011;63749;49.186;9.222;2024-01-11T00:31:09;51.80;;;18.45;;
75169;SDS011;63749;49.186;9.222;2024-01-11T00:33:35;49.85;;;18.65;;
75169;SDS011;63749;49.186;9.222;2024-01-11T00:36:00;53.23;;;19.87;;
75169;SDS011;63749;49.186;9.222;2024-01-11T00:38:25;45.13;;;17.75;;
75169;SDS011;63749;49.186;9.222;2024-01-11T00:40:51;49.60;;;19.05;;
75169;SDS011;63749;49.186;9.222;2024-01-11T00:43:16;54.83;;;19.17;;
75169;SDS011;63749;49.186;9.222;2024-01-11T00:45:42;55.00;;;19.10;;
75169;SDS011;63749;49.186;9.222;2024-01-11T00:48:07;48.87;;;18.67;;
75169;SDS011;63749;49.186;9.222;2024-01-11T00:50:32;46.60;;;18.17;;
75169;SDS011;63749;49.186;9.222;2024-01-11T00:52:58;54.53;;;20.20;;
75169;SDS011;63749;49.186;9.222;2024-01-11T00:55:23;54.20;;;19.97;;
75169;SDS011;63749;49.186;9.222;2024-01-11T00:57:49;54.53;;;19.60;;
75169;SDS011;63749;49.186;9.222;2024-01-11T01:00:15;53.08;;;19.95;;
75169;SDS011;63749;49.186;9.222;2024-01-11T01:02:41;49.77;;;18.00;;
75169;SDS011;63749;49.186;9.222;2024-01-11T01:05:06;52.83;;;19.90;;
75169;SDS011;63749;49.186;9.222;2024-01-11T01:07:32;50.78;;;19.45;;
75169;SDS011;63749;49.186;9.222;2024-01-11T01:09:58;45.03;;;18.20;;
75169;SDS011;63749;49.186;9.222;2024-01-11T01:12:23;48.67;;;18.80;;
75169;SDS011;63749;49.186;9.222;2024-01-11T01:14:50;51.28;;;19.02;;
75169;SDS011;63749;49.186;9.222;2024-01-11T01:17:16;53.33;;;18.93;;
75169;SDS011;63749;49.186;9.222;2024-01-11T01:19:41;51.78;;;19.63;;
75169;SDS011;63749;49.186;9.222;2024-01-11T01:22:06;49.23;;;18.67;;
75169;SDS011;63749;49.186;9.222;2024-01-11T01:24:32;51.37;;;18.90;;
75169;SDS011;63749;49.186;9.222;2024-01-11T01:26:57;49.20;;;19.00;;
75169;SDS011;63749;49.186;9.222;2024-01-11T01:29:24;50.38;;;18.50;;
75169;SDS011;63749;49.186;9.222;2024-01-11T01:31:49;50.00;;;18.43;;
75169;SDS011;63749;49.186;9.222;2024-01-11T01:34:14;46.50;;;17.37;;
75169;SDS011;63749;49.186;9.222;2024-01-11T01:36:40;45.40;;;17.97;;
75169;SDS011;63749;49.186;9.222;2024-01-11T01:39:05;54.97;;;19.48;;
75169;SDS011;63749;49.186;9.222;2024-01-11T01:41:31;47.53;;;19.10;;
75169;SDS011;63749;49.186;9.222;2024-01-11T01:43:56;47.57;;;18.53;;
75169;SDS011;63749;49.186;9.222;2024-01-11T01:46:23;49.53;;;18.33;;
75169;SDS011;63749;49.186;9.222;2024-01-11T01:48:49;55.28;;;19.45;;
75169;SDS011;63749;49.186;9.222;2024-01-11T01:51:16;53.08;;;20.08;;
75169;SDS011;63749;49.186;9.222;2024-01-11T01:53:42;53.27;;;19.67;;
75169;SDS011;63749;49.186;9.222;2024-01-11T01:56:07;53.43;;;19.57;;
75169;SDS011;63749;49.186;9.222;2024-01-11T01:58:33;54.45;;;20.85;;
75169;SDS011;63749;49.186;9.222;2024-01-11T02:01:00;54.22;;;21.13;;
75169;SDS011;63749;49.186;9.222;2024-01-11T02:03:26;55.75;;;20.67;;
75169;SDS011;63749;49.186;9.222;2024-01-11T02:05:53;59.80;;;20.85;;
75169;SDS011;63749;49.186;9.222;2024-01-11T02:08:19;57.80;;;19.93;;
75169;SDS011;63749;49.186;9.222;2024-01-11T02:10:50;55.72;;;21.20;;
75169;SDS011;63749;49.186;9.222;2024-01-11T02:13:16;58.78;;;22.10;;
75169;SDS011;63749;49.186;9.222;2024-01-11T02:15:41;60.87;;;21.40;;
75169;SDS011;63749;49.186;9.222;2024-01-11T02:18:09;58.90;;;22.35;;
75169;SDS011;63749;49.186;9.222;2024-01-11T02:20:35;61.80;;;22.03;;
75169;SDS011;63749;49.186;9.222;2024-01-11T02:23:05;56.45;;;21.30;;
75169;SDS011;63749;49.186;9.222;2024-01-11T02:25:33;59.33;;;20.00;;
75169;SDS011;63749;49.186;9.222;2024-01-11T02:27:58;58.55;;;20.65;;
75169;SDS011;63749;49.186;9.222;2024-01-11T02:30:23;57.87;;;20.90;;
75169;SDS011;63749;49.186;9.222;2024-01-11T02:32:49;56.97;;;20.63;;
75169;SDS011;63749;49.186;9.222;2024-01-11T02:35:16;59.58;;;20.05;;
75169;SDS011;63749;49.186;9.222;2024-01-11T02:37:41;53.58;;;20.05;;
75169;SDS011;63749;49.186;9.222;2024-01-11T02:40:08;55.23;;;20.50;;
75169;SDS011;63749;49.186;9.222;2024-01-11T02:42:36;55.58;;;20.92;;
75169;SDS011;63749;49.186;9.222;2024-01-11T02:45:02;58.40;;;21.17;;
75169;SDS011;63749;49.186;9.222;2024-01-11T02:47:28;59.45;;;21.02;;
75169;SDS011;63749;49.186;9.222;2024-01-11T02:49:54;61.13;;;21.42;;
75169;SDS011;63749;49.186;9.222;2024-01-11T02:52:19;59.60;;;20.63;;
75169;SDS011;63749;49.186;9.222;2024-01-11T02:54:45;54.63;;;20.87;;
75169;SDS011;63749;49.186;9.222;2024-01-11T02:57:10;59.30;;;20.80;;
75169;SDS011;63749;49.186;9.222;2024-01-11T02:59:36;48.27;;;18.47;;
75169;SDS011;63749;49.186;9.222;2024-01-11T03:02:01;52.20;;;19.45;;
75169;SDS011;63749;49.186;9.222;2024-01-11T03:04:27;50.43;;;17.60;;
75169;SDS011;63749;49.186;9.222;2024-01-11T03:06:52;48.77;;;17.70;;
75169;SDS011;63749;49.186;9.222;2024-01-11T03:09:17;48.07;;;18.53;;
75169;SDS011;63749;49.186;9.222;2024-01-11T03:11:43;47.40;;;17.87;;
75169;SDS011;63749;49.186;9.222;2024-01-11T03:14:08;49.55;;;18.25;;
75169;SDS011;63749;49.186;9.222;2024-01-11T03:16:33;50.70;;;18.60;;
75169;SDS011;63749;49.186;9.222;2024-01-11T03:18:59;48.57;;;16.53;;
75169;SDS011;63749;49.186;9.222;2024-01-11T03:21:24;43.07;;;17.13;;
75169;SDS011;63749;49.186;9.222;2024-01-11T03:23:50;49.85;;;17.95;;
75169;SDS011;63749;49.186;9.222;2024-01-11T03:26:16;44.13;;;17.30;;
75169;SDS011;63749;49.186;9.222;2024-01-11T03:28:42;48.22;;;18.00;;
75169;SDS011;63749;49.186;9.222;2024-01-11T03:31:10;44.97;;;17.13;;
75169;SDS011;63749;49.186;9.222;2024-01-11T03:33:36;45.05;;;16.90;;
75169;SDS011;63749;49.186;9.222;2024-01-11T03:36:08;50.40;;;17.60;;
75169;SDS011;63749;49.186;9.222;2024-01-11T03:38:34;49.05;;;17.38;;
75169;SDS011;63749;49.186;9.222;2024-01-11T03:41:00;52.40;;;18.40;;
75169;SDS011;63749;49.186;9.222;2024-01-11T03:43:25;43.67;;;17.30;;
75169;SDS011;63749;49.186;9.222;2024-01-11T03:45:51;40.00;;;15.87;;
75169;SDS011;63749;49.186;9.222;2024-01-11T03:48:16;42.97;;;16.33;;
75169;SDS011;63749;49.186;9.222;2024-01-11T03:50:41;45.88;;;17.27;;
75169;SDS011;63749;49.186;9.222;2024-01-11T03:53:07;48.60;;;17.00;;
75169;SDS011;63749;49.186;9.222;2024-01-11T03:55:33;44.70;;;17.48;;
75169;SDS011;63749;49.186;9.222;2024-01-11T03:57:58;47.40;;;17.50;;
75169;SDS011;63749;49.186;9.222;2024-01-11T04:00:24;46.47;;;16.63;;
75169;SDS011;63749;49.186;9.222;2024-01-11T04:02:49;46.03;;;16.63;;
75169;SDS011;63749;49.186;9.222;2024-01-11T04:05:14;47.40;;;17.47;;
75169;SDS011;63749;49.186;9.222;2024-01-11T04:07:40;45.05;;;17.77;;
75169;SDS011;63749;49.186;9.222;2024-01-11T04:10:06;47.23;;;17.07;;
75169;SDS011;63749;49.186;9.222;2024-01-11T04:12:34;46.38;;;16.83;;
75169;SDS011;63749;49.186;9.222;2024-01-11T04:15:00;50.08;;;18.38;;
75169;SDS011;63749;49.186;9.222;2024-01-11T04:17:26;53.10;;;18.40;;
75169;SDS011;63749;49.186;9.222;2024-01-11T04:19:51;45.83;;;17.80;;
75169;SDS011;63749;49.186;9.222;2024-01-11T04:22:17;51.00;;;17.83;;
75169;SDS011;63749;49.186;9.222;2024-01-11T04:24:42;43.20;;;16.55;;
75169;SDS011;63749;49.186;9.222;2024-01-11T04:27:08;44.37;;;16.57;;
75169;SDS011;63749;49.186;9.222;2024-01-11T04:29:33;42.05;;;16.85;;
75169;SDS011;63749;49.186;9.222;2024-01-11T04:31:59;44.63;;;15.27;;
75169;SDS011;63749;49.186;9.222;2024-01-11T04:34:24;41.43;;;17.17;;
75169;SDS011;63749;49.186;9.222;2024-01-11T04:36:50;43.60;;;16.27;;
75169;SDS011;63749;49.186;9.222;2024-01-11T04:39:15;47.67;;;17.85;;
75169;SDS011;63749;49.186;9.222;2024-01-11T04:41:41;44.80;;;16.35;;
75169;SDS011;63749;49.186;9.222;2024-01-11T04:44:06;47.13;;;17.83;;
75169;SDS011;63749;49.186;9.222;2024-01-11T04:46:31;45.90;;;16.77;;
75169;SDS011;63749;49.186;9.222;2024-01-11T04:48:57;48.03;;;16.63;;
75169;SDS011;63749;49.186;9.222;2024-01-11T04:51:22;48.17;;;17.45;;
75169;SDS011;63749;49.186;9.222;2024-01-11T04:53:48;42.63;;;15.27;;
75169;SDS011;63749;49.186;9.222;2024-01-11T04:56:14;45.20;;;16.47;;
75169;SDS011;63749;49.186;9.222;2024-01-11T04:58:40;46.88;;;17.98;;
75169;SDS011;63749;49.186;9.222;2024-01-11T05:01:07;48.65;;;18.50;;
75169;SDS011;63749;49.186;9.222;2024-01-11T05:03:36;50.30;;;17.63;;
75169;SDS011;63749;49.186;9.222;2024-01-11T05:06:02;44.88;;;15.82;;
75169;SDS011;63749;49.186;9.222;2024-01-11T05:08:28;51.77;;;18.47;;
75169;SDS011;63749;49.186;9.222;2024-01-11T05:10:54;47.95;;;18.25;;
75169;SDS011;63749;49.186;9.222;2024-01-11T05:13:19;47.47;;;17.73;;
75169;SDS011;63749;49.186;9.222;2024-01-11T05:15:45;47.90;;;17.70;;
75169;SDS011;63749;49.186;9.222;2024-01-11T05:18:10;50.87;;;18.63;;
75169;SDS011;63749;49.186;9.222;2024-01-11T05:20:36;41.38;;;15.73;;
75169;SDS011;63749;49.186;9.222;2024-01-11T05:23:02;44.53;;;17.83;;
75169;SDS011;63749;49.186;9.222;2024-01-11T05:25:29;45.63;;;16.60;;
75169;SDS011;63749;49.186;9.222;2024-01-11T05:27:58;37.13;;;15.07;;
75169;SDS011;63749;49.186;9.222;2024-01-11T05:30:24;48.25;;;17.35;;
75169;SDS011;63749;49.186;9.222;2024-01-11T05:32:49;45.67;;;16.60;;
75169;SDS011;63749;49.186;9.222;2024-01-11T05:35:15;46.00;;;17.30;;
75169;SDS011;63749;49.186;9.222;2024-01-11T05:37:40;38.97;;;14.17;;
75169;SDS011;63749;49.186;9.222;2024-01-11T05:40:06;40.93;;;14.80;;
75169;SDS011;63749;49.186;9.222;2024-01-11T05:42:32;49.70;;;17.38;;
75169;SDS011;63749;49.186;9.222;2024-01-11T05:44:58;40.17;;;15.33;;
75169;SDS011;63749;49.186;9.222;2024-01-11T05:47:23;49.13;;;17.60;;
75169;SDS011;63749;49.186;9.222;2024-01-11T05:49:49;50.67;;;18.55;;
75169;SDS011;63749;49.186;9.222;2024-01-11T05:52:15;48.07;;;18.03;;
75169;SDS011;63749;49.186;9.222;2024-01-11T05:54:40;50.03;;;19.27;;
75169;SDS011;63749;49.186;9.222;2024-01-11T05:57:06;51.72;;;19.83;;
75169;SDS011;63749;49.186;9.222;2024-01-11T05:59:32;51.88;;;19.60;;
75169;SDS011;63749;49.186;9.222;2024-01-11T06:01:58;49.90;;;18.55;;
75169;SDS011;63749;49.186;9.222;2024-01-11T06:04:25;50.13;;;19.58;;
75169;SDS011;63749;49.186;9.222;2024-01-11T06:06:51;53.17;;;20.20;;
75169;SDS011;63749;49.186;9.222;2024-01-11T06:09:16;54.13;;;19.67;;
75169;SDS011;63749;49.186;9.222;2024-01-11T06:11:42;47.17;;;17.20;;
75169;SDS011;63749;49.186;9.222;2024-01-11T06:14:07;50.37;;;19.13;;
75169;SDS011;63749;49.186;9.222;2024-01-11T06:16:33;42.90;;;16.27;;
75169;SDS011;63749;49.186;9.222;2024-01-11T06:18:58;45.07;;;17.07;;
75169;SDS011;63749;49.186;9.222;2024-01-11T06:21:24;52.40;;;18.77;;
75169;SDS011;63749;49.186;9.222;2024-01-11T06:23:49;47.50;;;18.90;;
75169;SDS011;63749;49.186;9.222;2024-01-11T06:26:14;49.07;;;19.20;;
75169;SDS011;63749;49.186;9.222;2024-01-11T06:28:40;46.27;;;17.97;;
75169;SDS011;63749;49.186;9.222;2024-01-11T06:31:05;52.97;;;19.10;;
75169;SDS011;63749;49.186;9.222;2024-01-11T06:33:31;51.43;;;19.20;;
75169;SDS011;63749;49.186;9.222;2024-01-11T06:35:58;48.60;;;17.92;;
75169;SDS011;63749;49.186;9.222;2024-01-11T06:38:23;47.10;;;18.03;;
75169;SDS011;63749;49.186;9.222;2024-01-11T06:40:48;41.60;;;15.32;;
75169;SDS011;63749;49.186;9.222;2024-01-11T06:43:14;53.40;;;20.23;;
75169;SDS011;63749;49.186;9.222;2024-01-11T06:45:40;51.27;;;20.13;;
75169;SDS011;63749;49.186;9.222;2024-01-11T06:48:07;52.55;;;19.35;;
75169;SDS011;63749;49.186;9.222;2024-01-11T06:50:32;57.23;;;20.90;;
75169;SDS011;63749;49.186;9.222;2024-01-11T06:52:57;51.90;;;18.97;;
75169;SDS011;63749;49.186;9.222;2024-01-11T06:55:23;59.57;;;20.67;;
75169;SDS011;63749;49.186;9.222;2024-01-11T06:57:48;55.47;;;20.85;;
75169;SDS011;63749;49.186;9.222;2024-01-11T07:00:14;56.13;;;21.17;;
75169;SDS011;63749;49.186;9.222;2024-01-11T07:02:39;53.90;;;19.80;;
75169;SDS011;63749;49.186;9.222;2024-01-11T07:05:06;58.00;;;20.88;;
75169;SDS011;63749;49.186;9.222;2024-01-11T07:07:31;54.60;;;20.63;;
75169;SDS011;63749;49.186;9.222;2024-01-11T07:09:58;59.08;;;20.95;;
75169;SDS011;63749;49.186;9.222;2024-01-11T07:12:23;51.83;;;19.15;;
75169;SDS011;63749;49.186;9.222;2024-01-11T07:14:49;53.25;;;19.23;;
75169;SDS011;63749;49.186;9.222;2024-01-11T07:17:14;54.53;;;20.00;;
75169;SDS011;63749;49.186;9.222;2024-01-11T07:19:39;51.83;;;19.37;;
75169;SDS011;63749;49.186;9.222;2024-01-11T07:22:05;53.03;;;19.03;;
75169;SDS011;63749;49.186;9.222;2024-01-11T07:24:30;51.00;;;18.50;;
75169;SDS011;63749;49.186;9.222;2024-01-11T07:27:02;49.05;;;18.67;;
75169;SDS011;63749;49.186;9.222;2024-01-11T07:29:31;55.60;;;19.88;;
75169;SDS011;63749;49.186;9.222;2024-01-11T07:31:57;47.13;;;17.10;;
75169;SDS011;63749;49.186;9.222;2024-01-11T07:34:23;34.33;;;12.20;;
75169;SDS011;63749;49.186;9.222;2024-01-11T07:36:49;46.28;;;17.67;;
75169;SDS011;63749;49.186;9.222;2024-01-11T07:39:15;37.08;;;14.90;;
75169;SDS011;63749;49.186;9.222;2024-01-11T07:41:40;49.10;;;17.83;;
75169;SDS011;63749;49.186;9.222;2024-01-11T07:44:06;50.03;;;17.67;;
75169;SDS011;63749;49.186;9.222;2024-01-11T07:46:31;34.80;;;12.47;;
75169;SDS011;63749;49.186;9.222;2024-01-11T07:48:56;46.63;;;16.77;;
75169;SDS011;63749;49.186;9.222;2024-01-11T07:51:22;43.10;;;14.90;;
75169;SDS011;63749;49.186;9.222;2024-01-11T07:53:47;51.13;;;18.20;;
75169;SDS011;63749;49.186;9.222;2024-01-11T07:56:13;54.13;;;18.87;;
75169;SDS011;63749;49.186;9.222;2024-01-11T07:58:39;52.67;;;19.85;;
75169;SDS011;63749;49.186;9.222;2024-01-11T08:01:06;51.85;;;19.02;;
75169;SDS011;63749;49.186;9.222;2024-01-11T08:03:32;52.07;;;20.23;;
75169;SDS011;63749;49.186;9.222;2024-01-11T08:05:59;48.92;;;19.77;;
75169;SDS011;63749;49.186;9.222;2024-01-11T08:08:25;55.47;;;20.10;;
75169;SDS011;63749;49.186;9.222;2024-01-11T08:10:51;60.42;;;22.02;;
75169;SDS011;63749;49.186;9.222;2024-01-11T08:13:16;54.87;;;19.73;;
75169;SDS011;63749;49.186;9.222;2024-01-11T08:15:42;51.30;;;20.42;;
75169;SDS011;63749;49.186;9.222;2024-01-11T08:18:08;53.37;;;20.10;;
75169;SDS011;63749;49.186;9.222;2024-01-11T08:20:34;50.35;;;20.30;;
75169;SDS011;63749;49.186;9.222;2024-01-11T08:22:59;54.87;;;20.50;;
75169;SDS011;63749;49.186;9.222;2024-01-11T08:25:25;55.23;;;19.67;;
75169;SDS011;63749;49.186;9.222;2024-01-11T08:27:50;50.23;;;20.23;;
75169;SDS011;63749;49.186;9.222;2024-01-11T08:30:15;51.37;;;19.40;;
75169;SDS011;63749;49.186;9.222;2024-01-11T08:32:41;51.78;;;19.23;;
75169;SDS011;63749;49.186;9.222;2024-01-11T08:35:08;51.43;;;19.53;;
75169;SDS011;63749;49.186;9.222;2024-01-11T08:37:35;50.55;;;19.00;;
75169;SDS011;63749;49.186;9.222;2024-01-11T08:40:00;51.67;;;19.48;;
75169;SDS011;63749;49.186;9.222;2024-01-11T08:42:26;51.70;;;19.50;;
75169;SDS011;63749;49.186;9.222;2024-01-11T08:44:51;37.37;;;15.03;;
75169;SDS011;63749;49.186;9.222;2024-01-11T08:47:17;47.08;;;17.48;;
75169;SDS011;63749;49.186;9.222;2024-01-11T08:49:43;58.67;;;20.23;;
75169;SDS011;63749;49.186;9.222;2024-01-11T08:52:08;51.90;;;20.92;;
75169;SDS011;63749;49.186;9.222;2024-01-11T08:54:34;47.93;;;19.03;;
75169;SDS011;63749;49.186;9.222;2024-01-11T08:57:00;52.73;;;19.17;;
75169;SDS011;63749;49.186;9.222;2024-01-11T08:59:26;44.75;;;16.60;;
75169;SDS011;63749;49.186;9.222;2024-01-11T09:01:51;51.37;;;18.57;;
75169;SDS011;63749;49.186;9.222;2024-01-11T09:04:17;46.88;;;17.98;;
75169;SDS011;63749;49.186;9.222;2024-01-11T09:06:43;50.93;;;18.40;;
75169;SDS011;63749;49.186;9.222;2024-01-11T09:09:10;41.67;;;16.42;;
75169;SDS011;63749;49.186;9.222;2024-01-11T09:11:38;32.20;;;12.23;;
75169;SDS011;63749;49.186;9.222;2024-01-11T09:14:04;35.72;;;14.52;;
75169;SDS011;63749;49.186;9.222;2024-01-11T09:16:30;49.40;;;19.00;;
75169;SDS011;63749;49.186;9.222;2024-01-11T09:18:56;45.00;;;18.77;;
75169;SDS011;63749;49.186;9.222;2024-01-11T09:21:21;46.83;;;18.93;;
75169;SDS011;63749;49.186;9.222;2024-01-11T09:23:47;30.27;;;12.47;;
75169;SDS011;63749;49.186;9.222;2024-01-11T09:26:12;40.60;;;15.07;;
75169;SDS011;63749;49.186;9.222;2024-01-11T09:28:38;48.28;;;18.27;;
75169;SDS011;63749;49.186;9.222;2024-01-11T09:31:03;51.90;;;19.50;;
75169;SDS011;63749;49.186;9.222;2024-01-11T09:33:28;40.30;;;15.20;;
75169;SDS011;63749;49.186;9.222;2024-01-11T09:35:55;35.30;;;14.80;;
75169;SDS011;63749;49.186;9.222;2024-01-11T09:38:23;37.55;;;15.63;;
75169;SDS011;63749;49.186;9.222;2024-01-11T09:40:56;29.97;;;13.80;;
75169;SDS011;63749;49.186;9.222;2024-01-11T09:43:33;48.90;;;18.85;;
75169;SDS011;63749;49.186;9.222;2024-01-11T09:46:00;45.58;;;18.58;;
75169;SDS011;63749;49.186;9.222;2024-01-11T09:48:29;53.33;;;19.23;;
75169;SDS011;63749;49.186;9.222;2024-01-11T09:50:57;48.28;;;18.15;;
75169;SDS011;63749;49.186;9.222;2024-01-11T09:53:24;43.20;;;17.88;;
75169;SDS011;63749;49.186;9.222;2024-01-11T09:55:51;45.47;;;18.38;;
75169;SDS011;63749;49.186;9.222;2024-01-11T09:58:18;48.95;;;19.05;;
75169;SDS011;63749;49.186;9.222;2024-01-11T10:00:45;45.63;;;18.50;;
75169;SDS011;63749;49.186;9.222;2024-01-11T10:03:11;45.22;;;18.50;;
75169;SDS011;63749;49.186;9.222;2024-01-11T10:05:37;46.38;;;18.65;;
75169;SDS011;63749;49.186;9.222;2024-01-11T10:08:03;48.33;;;19.40;;
75169;SDS011;63749;49.186;9.222;2024-01-11T10:10:28;45.28;;;18.15;;
75169;SDS011;63749;49.186;9.222;2024-01-11T10:12:54;47.50;;;19.43;;
75169;SDS011;63749;49.186;9.222;2024-01-11T10:15:21;46.88;;;19.33;;
75169;SDS011;63749;49.186;9.222;2024-01-11T10:17:49;55.43;;;21.30;;
75169;SDS011;63749;49.186;9.222;2024-01-11T10:20:14;47.30;;;18.90;;
75169;SDS011;63749;49.186;9.222;2024-01-11T10:22:40;38.43;;;15.27;;
75169;SDS011;63749;49.186;9.222;2024-01-11T10:25:13;44.80;;;18.80;;
75169;SDS011;63749;49.186;9.222;2024-01-11T10:27:41;46.67;;;18.27;;
75169;SDS011;63749;49.186;9.222;2024-01-11T10:30:08;45.13;;;19.08;;
75169;SDS011;63749;49.186;9.222;2024-01-11T10:32:34;35.10;;;14.33;;
75169;SDS011;63749;49.186;9.222;2024-01-11T10:35:00;43.90;;;18.75;;
75169;SDS011;63749;49.186;9.222;2024-01-11T10:37:30;43.37;;;17.30;;
75169;SDS011;63749;49.186;9.222;2024-01-11T10:39:57;44.30;;;18.65;;
75169;SDS011;63749;49.186;9.222;2024-01-11T10:42:24;40.55;;;16.92;;
75169;SDS011;63749;49.186;9.222;2024-01-11T10:44:52;43.35;;;18.25;;
75169;SDS011;63749;49.186;9.222;2024-01-11T10:47:21;46.13;;;18.70;;
75169;SDS011;63749;49.186;9.222;2024-01-11T10:49:48;43.73;;;17.83;;
75169;SDS011;63749;49.186;9.222;2024-01-11T10:52:17;44.88;;;17.98;;
75169;SDS011;63749;49.186;9.222;2024-01-11T10:54:52;42.83;;;18.98;;
75169;SDS011;63749;49.186;9.222;2024-01-11T10:57:18;44.20;;;18.40;;
75169;SDS011;63749;49.186;9.222;2024-01-11T10:59:44;46.33;;;18.97;;
75169;SDS011;63749;49.186;9.222;2024-01-11T11:02:11;46.05;;;18.90;;
75169;SDS011;63749;49.186;9.222;2024-01-11T11:04:39;45.08;;;18.85;;
75169;SDS011;63749;49.186;9.222;2024-01-11T11:07:06;45.53;;;19.17;;
75169;SDS011;63749;49.186;9.222;2024-01-11T11:09:33;43.40;;;19.45;;
75169;SDS011;63749;49.186;9.222;2024-01-11T11:12:00;36.07;;;14.20;;
75169;SDS011;63749;49.186;9.222;2024-01-11T11:14:26;44.50;;;18.92;;
75169;SDS011;63749;49.186;9.222;2024-01-11T11:16:53;42.05;;;16.77;;
75169;SDS011;63749;49.186;9.222;2024-01-11T11:19:22;43.13;;;18.73;;
75169;SDS011;63749;49.186;9.222;2024-01-11T11:21:47;42.22;;;17.48;;
75169;SDS011;63749;49.186;9.222;2024-01-11T11:24:13;40.75;;;18.10;;
75169;SDS011;63749;49.186;9.222;2024-01-11T11:26:39;41.43;;;17.13;;
75169;SDS011;63749;49.186;9.222;2024-01-11T11:29:04;41.30;;;17.33;;
75169;SDS011;63749;49.186;9.222;2024-01-11T11:31:43;42.75;;;18.38;;
75169;SDS011;63749;49.186;9.222;2024-01-11T11:34:19;39.47;;;17.13;;
75169;SDS011;63749;49.186;9.222;2024-01-11T11:36:48;38.85;;;16.02;;
75169;SDS011;63749;49.186;9.222;2024-01-11T11:39:19;42.25;;;17.38;;
75169;SDS011;63749;49.186;9.222;2024-01-11T11:41:45;33.17;;;13.73;;
75169;SDS011;63749;49.186;9.222;2024-01-11T11:44:12;45.35;;;18.20;;
75169;SDS011;63749;49.186;9.222;2024-01-11T11:46:38;41.55;;;16.67;;
75169;SDS011;63749;49.186;9.222;2024-01-11T11:49:04;40.60;;;17.40;;
75169;SDS011;63749;49.186;9.222;2024-01-11T11:51:29;41.73;;;18.27;;
75169;SDS011;63749;49.186;9.222;2024-01-11T11:53:55;40.40;;;16.77;;
75169;SDS011;63749;49.186;9.222;2024-01-11T11:56:22;37.50;;;16.52;;
75169;SDS011;63749;49.186;9.222;2024-01-11T11:58:48;45.40;;;18.98;;
75169;SDS011;63749;49.186;9.222;2024-01-11T12:01:18;42.95;;;17.52;;
75169;SDS011;63749;49.186;9.222;2024-01-11T12:03:44;41.53;;;17.67;;
75169;SDS011;63749;49.186;9.222;2024-01-11T12:06:17;39.53;;;17.50;;
75169;SDS011;63749;49.186;9.222;2024-01-11T12:08:44;40.63;;;17.48;;
75169;SDS011;63749;49.186;9.222;2024-01-11T12:11:12;41.90;;;18.40;;
75169;SDS011;63749;49.186;9.222;2024-01-11T12:13:38;31.98;;;14.45;;
75169;SDS011;63749;49.186;9.222;2024-01-11T12:16:05;41.05;;;17.35;;
75169;SDS011;63749;49.186;9.222;2024-01-11T12:18:30;41.33;;;18.37;;
75169;SDS011;63749;49.186;9.222;2024-01-11T12:20:55;31.93;;;14.00;;
75169;SDS011;63749;49.186;9.222;2024-01-11T12:23:21;34.90;;;15.00;;
75169;SDS011;63749;49.186;9.222;2024-01-11T12:25:47;38.10;;;17.38;;
75169;SDS011;63749;49.186;9.222;2024-01-11T12:28:12;27.87;;;11.90;;
75169;SDS011;63749;49.186;9.222;2024-01-11T12:30:38;38.53;;;16.97;;
75169;SDS011;63749;49.186;9.222;2024-01-11T12:33:03;39.40;;;17.10;;
75169;SDS011;63749;49.186;9.222;2024-01-11T12:35:30;45.53;;;17.98;;
75169;SDS011;63749;49.186;9.222;2024-01-11T12:37:59;40.80;;;17.33;;
75169;SDS011;63749;49.186;9.222;2024-01-11T12:40:26;40.88;;;17.70;;
75169;SDS011;63749;49.186;9.222;2024-01-11T12:42:52;39.77;;;17.10;;
75169;SDS011;63749;49.186;9.222;2024-01-11T12:45:18;39.15;;;17.45;;
75169;SDS011;63749;49.186;9.222;2024-01-11T12:47:43;37.63;;;17.13;;
75169;SDS011;63749;49.186;9.222;2024-01-11T12:50:09;39.50;;;17.50;;
75169;SDS011;63749;49.186;9.222;2024-01-11T12:52:37;40.38;;;16.83;;
75169;SDS011;63749;49.186;9.222;2024-01-11T12:55:03;35.13;;;14.37;;
75169;SDS011;63749;49.186;9.222;2024-01-11T12:57:29;41.80;;;16.40;;
75169;SDS011;63749;49.186;9.222;2024-01-11T12:59:55;37.37;;;16.93;;
75169;SDS011;63749;49.186;9.222;2024-01-11T13:02:35;37.58;;;16.13;;
75169;SDS011;63749;49.186;9.222;2024-01-11T13:05:00;37.73;;;16.03;;
75169;SDS011;63749;49.186;9.222;2024-01-11T13:07:27;33.13;;;15.10;;
75169;SDS011;63749;49.186;9.222;2024-01-11T13:09:52;37.23;;;15.83;;
75169;SDS011;63749;49.186;9.222;2024-01-11T13:12:18;36.72;;;15.60;;
75169;SDS011;63749;49.186;9.222;2024-01-11T13:14:45;37.60;;;16.60;;
75169;SDS011;63749;49.186;9.222;2024-01-11T13:17:11;38.73;;;16.53;;
75169;SDS011;63749;49.186;9.222;2024-01-11T13:19:36;33.45;;;15.27;;
75169;SDS011;63749;49.186;9.222;2024-01-11T13:22:02;33.53;;;15.63;;
75169;SDS011;63749;49.186;9.222;2024-01-11T13:24:27;36.67;;;15.80;;
75169;SDS011;63749;49.186;9.222;2024-01-11T13:26:53;36.25;;;16.08;;
75169;SDS011;63749;49.186;9.222;2024-01-11T13:29:18;34.60;;;16.20;;
75169;SDS011;63749;49.186;9.222;2024-01-11T13:31:43;36.47;;;15.83;;
75169;SDS011;63749;49.186;9.222;2024-01-11T13:34:09;34.27;;;15.43;;
75169;SDS011;63749;49.186;9.222;2024-01-11T13:36:34;33.83;;;15.90;;
75169;SDS011;63749;49.186;9.222;2024-01-11T13:39:00;38.80;;;16.43;;
75169;SDS011;63749;49.186;9.222;2024-01-11T13:41:25;37.60;;;17.35;;
75169;SDS011;63749;49.186;9.222;2024-01-11T13:43:51;33.50;;;16.50;;
75169;SDS011;63749;49.186;9.222;2024-01-11T13:46:16;34.17;;;16.47;;
75169;SDS011;63749;49.186;9.222;2024-01-11T13:48:44;34.78;;;17.85;;
75169;SDS011;63749;49.186;9.222;2024-01-11T13:51:10;35.30;;;17.20;;
75169;SDS011;63749;49.186;9.222;2024-01-11T13:53:38;33.78;;;17.42;;
75169;SDS011;63749;49.186;9.222;2024-01-11T13:56:03;35.70;;;18.40;;
75169;SDS011;63749;49.186;9.222;2024-01-11T13:58:29;34.55;;;18.02;;
75169;SDS011;63749;49.186;9.222;2024-01-11T14:00:54;34.03;;;18.30;;
75169;SDS011;63749;49.186;9.222;2024-01-11T14:03:20;32.67;;;18.42;;
75169;SDS011;63749;49.186;9.222;2024-01-11T14:05:45;34.10;;;18.80;;
75169;SDS011;63749;49.186;9.222;2024-01-11T14:08:10;34.77;;;18.83;;
75169;SDS011;63749;49.186;9.222;2024-01-11T14:10:36;32.10;;;18.27;;
75169;SDS011;63749;49.186;9.222;2024-01-11T14:13:02;32.35;;;19.02;;
75169;SDS011;63749;49.186;9.222;2024-01-11T14:15:28;29.73;;;18.67;;